createdAt,value
2019-03-21T00:16:26.670Z,2.60
2019-03-21T00:25:08.645Z,2.10
2019-03-21T00:41:49.674Z,2.40
2019-03-21T00:45:04.863Z,2.10
2019-03-21T00:48:32.644Z,2.30
2019-03-21T00:54:15.616Z,2.63
2019-03-21T01:15:48.453Z,2.30
2019-03-21T01:18:50.773Z,2.27
2019-03-21T01:37:58.135Z,2.60
2019-03-21T01:41:01.642Z,2.40
2019-03-21T01:50:08.610Z,2.90
2019-03-21T01:56:17.403Z,2.57
2019-03-21T01:59:44.454Z,2.57
2019-03-21T02:05:50.783Z,2.67
2019-03-21T02:08:41.545Z,2.53
2019-03-21T02:11:53.293Z,2.83
2019-03-21T02:14:52.009Z,2.40
2019-03-21T02:29:26.694Z,2.20
2019-03-21T02:32:17.366Z,3.10
2019-03-21T02:38:48.003Z,2.50
2019-03-21T02:45:08.982Z,2.83
2019-03-21T02:54:25.710Z,2.43
2019-03-21T02:58:17.573Z,3.07
2019-03-21T03:01:33.705Z,3.23
2019-03-21T03:10:31.166Z,2.47
2019-03-21T03:13:02.291Z,3.17
2019-03-21T03:15:34.081Z,2.80
2019-03-21T03:18:05.357Z,2.93
2019-03-21T03:20:36.517Z,2.80
2019-03-21T03:23:07.781Z,3.03
2019-03-21T03:25:41.605Z,2.97
2019-03-21T03:28:20.895Z,4.07
2019-03-21T03:31:09.684Z,2.70
2019-03-21T03:33:41.697Z,3.03
2019-03-21T03:36:13.012Z,2.90
2019-03-21T03:38:44.209Z,3.47
2019-03-21T03:41:16.974Z,3.07
2019-03-21T03:43:50.555Z,3.10
2019-03-21T03:46:21.632Z,3.70
2019-03-21T03:48:52.753Z,3.20
2019-03-21T03:51:26.690Z,3.20
2019-03-21T03:53:58.675Z,3.10
2019-03-21T03:56:29.701Z,3.13
2019-03-21T03:59:07.453Z,2.80
2019-03-21T04:01:38.576Z,3.13
2019-03-21T04:04:09.721Z,3.27
2019-03-21T04:06:42.653Z,3.73
2019-03-21T04:09:16.791Z,3.43
2019-03-21T04:11:49.680Z,3.30
2019-03-21T04:14:20.726Z,3.57
2019-03-21T04:16:51.782Z,3.60
2019-03-21T04:19:22.922Z,3.20
2019-03-21T04:21:56.798Z,3.57
2019-03-21T04:24:31.310Z,3.43
2019-03-21T04:27:02.850Z,4.27
2019-03-21T04:29:38.199Z,3.83
2019-03-21T04:32:29.876Z,3.80
2019-03-21T04:35:01.093Z,3.57
2019-03-21T04:37:32.982Z,4.13
2019-03-21T04:40:08.787Z,3.77
2019-03-21T04:42:39.895Z,3.87
2019-03-21T04:45:17.169Z,4.00
2019-03-21T04:47:49.709Z,4.30
2019-03-21T04:50:49.125Z,3.87
2019-03-21T04:53:04.064Z,3.87
2019-03-21T04:55:38.974Z,3.50
2019-03-21T04:58:11.898Z,3.37
2019-03-21T05:01:02.751Z,3.73
2019-03-21T05:03:33.960Z,3.50
2019-03-21T05:06:05.444Z,3.67
2019-03-21T05:08:53.407Z,3.23
2019-03-21T05:11:48.960Z,4.13
2019-03-21T05:14:22.087Z,4.00
2019-03-21T05:16:54.410Z,4.13
2019-03-21T05:19:28.502Z,3.60
2019-03-21T05:21:59.766Z,4.07
2019-03-21T05:24:51.659Z,4.10
2019-03-21T05:27:24.930Z,3.73
2019-03-21T05:29:55.919Z,3.53
2019-03-21T05:32:29.213Z,3.63
2019-03-21T05:35:00.467Z,3.57
2019-03-21T05:37:35.694Z,3.67
2019-03-21T05:40:08.794Z,3.37
2019-03-21T05:42:39.919Z,3.77
2019-03-21T05:45:12.928Z,4.20
2019-03-21T05:47:46.991Z,3.70
2019-03-21T05:50:20.271Z,3.40
2019-03-21T05:52:54.881Z,3.87
2019-03-21T05:55:26.925Z,4.83
2019-03-21T05:58:00.955Z,3.73
2019-03-21T06:00:40.167Z,5.03
2019-03-21T06:03:38.634Z,3.63
2019-03-21T21:42:07.534Z,1.20
2019-03-21T21:45:19.674Z,1.40
2019-03-21T21:51:27.476Z,1.40
2019-03-21T22:01:19.486Z,1.30
2019-03-21T22:03:50.693Z,1.47
2019-03-21T22:06:21.915Z,1.60
2019-03-21T22:08:53.213Z,1.60
2019-03-21T22:11:25.356Z,1.40
2019-03-21T22:20:42.538Z,1.47
2019-03-21T22:23:33.600Z,1.70
2019-03-21T22:27:00.901Z,1.60
2019-03-21T22:32:42.192Z,1.97
2019-03-21T22:35:46.680Z,1.50
2019-03-21T22:41:53.163Z,1.53
2019-03-21T23:02:12.300Z,1.47
2019-03-21T23:48:21.722Z,1.60
2019-03-21T23:50:52.704Z,1.70
2019-03-21T23:53:25.405Z,1.70
2019-03-21T23:55:56.435Z,1.53
2019-03-21T23:58:29.310Z,1.60
